Weather at Frederick Municipal Airport

Public forecast

Using degrees Fahrenheit for public forecast. Weather courtesy of forecast.io.

Current aviation weather report (METAR) for Frederick Municipal Airport

Retrieved 2020/11/29 03:35 UTC (0 seconds ago):

KFDK 290335Z AUTO 00000KT 10SM CLR 01/00 A3016 RMK AO2

Closest aviation forecast (TAF) to Frederick Municipal Airport

Closest forecast is Eastern WV Regional Airport/Shepherd Field, 28.3 nm (52.5 km) W. Retrieved 2020-11-29 00:28 UTC (3 hours ago):

TAF KMRB 282326Z 2900/2924 31005KT P6SM FEW250 FM290200 VRB03KT P6SM FEW250 FM291700 17005KT P6SM SCT250 FM292200 14005KT P6SM SCT250